Etusivu
METAR-TAF:

METAR-TAF

Lentoasemat :

Huippuvuorten lentoasema

Longyearbyen, Norja

Leveyspiiri: 78-15N, Pituuspiiri: 015-28E, korkeus merenpinnasta: 2 m

Tämänhetkinen sää

Tämä raportti tehtiin 42 minuuttia sitten, kello 08.50 UTC
Tuuli 11 kn pohjoisesta
Lämpötila -16°C
Kosteus 65%
Ilmanpaine 987 hPa
Näkyvyys 10 km tai enemmän
Muutamia pilviä 2300 ft:n korkeudessa
Hajanaisia pilviä 3000 ft:n korkeudessa

METAR: ENSB 180850Z 36011KT 9999 FEW023 SCT030 M16/M21 Q0987 NOSIG RMK WIND 1400FT 36014KT

Aika: 10:32 (09:32 UTC)

Sääennuste

Ennuste voimassa 18. päivästä klo 07 UTC - 19. päivään klo 06 UTC
Tuuli 9 kn pohjoisesta/koillisesta
Näkyvyys 10 km tai enemmän
Hajanaisia pilviä 2000 ft:n korkeudessa
Tulossa
18. päivästä klo 22 UTC - 19. päivään klo 01 UTC
Tuuli 18 kn lännestä/luoteesta

TAF: ENSB 1807/1906 02009KT 9999 SCT020 BECMG 1822/1901 30018KT

Säähavainnot ja -ennusteet yli 4000 lentoasemalta (METAR- ja TAF-raportit).

Käytössä olevat sääasemat on merkitty karttaan keltaisilla ja punaisilla pisteillä.

Aseta hiiri pisteen päälle nähdäksesi sääaseman nimen.

Klikkaa sitten nähdäksesi säähavainnot ja -ennusteet.

Kartan vaihtaminen: klikkaa mustalla rastilla varustettuja vihreitä pisteitä, niin voit zoomata sisään; viivalla varustettua vihreää pistettä, niin voit zoomata ulos tai vihreitä nuolia, niin pääset viereisille kartoille.


METAR-TAF: